Austinburg, Ohio
Current Conditions -  °F | °C
As of 2:53 AM on Sunday 21 Dec 2014 (Local Time) from KHZY Reporting Station
Overcast Overcast  
Wind Chill: 29°   Ceiling: 2400
Heat Index: 29°   Visibility: 9mi
Dew Point: 24°   Wind: 0mph
Humidity: 82%   Direction: NA
Pressure: 30.29"   Gusts: NA
Location:  41.77°N, 80.85°W
Report Text: KHZY 210753Z AUTO 00000KT 9SM OVC024 M02/M04 A3029 RMK AO2 SLP267 T10171044
Loading
Personal Weather Stations






























Interactive Weather Map New forecast layout! Learn more

10-Day Weather Forecast

Advertisements
Track Severe Weather on mobile